Tunis, Tunisia
Current Conditions -  °F | °C
As of 10:30 PM on Friday 28 Nov 2014 (Local Time) from DTTA Reporting Station
Few Clouds Few Clouds  
Wind Chill: 68°   Ceiling: Unl
Heat Index: 68°   Visibility: 6mi
Dew Point: 48°   Wind: 2mph
Humidity: 49%   Direction: NA
Pressure: 29.74"   Gusts: NA
Location:  36.84°N, 10.22°E
Report Text: DTTA 282130Z VRB02KT 9999 FEW026 20/09 Q1007 NOSIG
Loading
Personal Weather Stations






























Interactive Weather Map New forecast layout! Learn more

10-Day Weather Forecast

Advertisements
Track Severe Weather on mobile